createdAt,value
2022-08-05T08:53:20.008Z,742.50
2022-08-05T08:54:20.016Z,765.00
2022-08-05T08:56:04.679Z,765.00
2022-08-05T08:56:49.620Z,843.75
2022-08-05T08:57:57.958Z,894.38
2022-08-05T08:58:48.983Z,961.88
2022-08-05T08:59:49.028Z,1153.12
2022-08-05T09:00:48.080Z,1417.50
2022-08-05T09:01:57.396Z,1518.75
2022-08-05T09:02:48.922Z,1085.62
2022-08-05T09:03:48.224Z,1681.88
2022-08-05T09:05:16.857Z,1108.12
2022-08-05T09:06:07.624Z,1220.62
2022-08-05T09:06:49.950Z,1186.88
2022-08-05T09:07:56.985Z,1530.00
2022-08-05T09:08:48.846Z,2221.88
2022-08-05T09:09:47.839Z,2300.62
2022-08-05T09:10:48.075Z,1946.25
2022-08-05T09:11:50.789Z,1372.50
2022-08-05T09:12:51.048Z,1361.25
2022-08-05T09:14:09.555Z,1226.25
2022-08-05T09:14:57.812Z,1530.00
2022-08-05T09:15:48.851Z,1631.25
2022-08-05T09:16:48.778Z,1800.00
2022-08-05T09:17:49.695Z,1783.12
2022-08-05T09:18:47.780Z,1884.38
2022-08-05T09:19:55.041Z,1957.50
2022-08-05T09:20:48.779Z,995.62
2022-08-05T09:22:22.657Z,804.38
2022-08-05T09:22:51.957Z,838.12
2022-08-05T09:23:47.685Z,1788.75
2022-08-05T09:24:47.733Z,1800.00
2022-08-05T09:26:01.420Z,1710.00
2022-08-05T09:26:48.720Z,1665.00
2022-08-05T09:28:04.564Z,1642.50
2022-08-05T09:28:48.800Z,1552.50
2022-08-05T09:29:48.196Z,1614.38
2022-08-05T09:30:47.682Z,1704.38
2022-08-05T09:32:41.546Z,1850.62
2022-08-05T09:32:48.710Z,1957.50
2022-08-05T09:33:47.647Z,1822.50
2022-08-05T09:34:47.652Z,1406.25
2022-08-05T09:35:47.710Z,1558.12
2022-08-05T09:36:55.022Z,1856.25
2022-08-05T09:38:17.763Z,1839.38
2022-08-05T09:38:48.533Z,2058.75
2022-08-05T09:39:52.354Z,1738.12
2022-08-05T09:40:53.737Z,2272.50
2022-08-05T09:41:53.956Z,2272.50
2022-08-05T09:42:48.573Z,2390.62
2022-08-05T09:43:49.448Z,2205.00
2022-08-05T09:44:49.466Z,2126.25
2022-08-05T09:46:06.177Z,2199.38
2022-08-05T09:46:51.757Z,1738.12
2022-08-05T09:47:55.977Z,1614.38
2022-08-05T09:49:06.570Z,2250.00
2022-08-05T09:50:00.412Z,1811.25
2022-08-05T09:50:48.504Z,2019.38
2022-08-05T09:51:49.401Z,1912.50
2022-08-05T09:52:47.454Z,2677.50
2022-08-05T09:53:54.313Z,3285.00
2022-08-05T09:54:48.377Z,1513.12
2022-08-05T09:55:57.383Z,1350.00
2022-08-05T09:56:51.837Z,1440.00
2022-08-05T09:57:47.437Z,1468.12
2022-08-05T09:58:47.457Z,1901.25
2022-08-05T09:59:47.326Z,1878.75
2022-08-05T10:00:47.409Z,1749.38
2022-08-05T10:01:47.358Z,1423.12
2022-08-05T10:02:47.564Z,1338.75
2022-08-05T10:03:58.576Z,1271.25
2022-08-05T10:04:48.269Z,1018.12
2022-08-05T10:05:47.450Z,945.00
2022-08-05T10:06:54.773Z,1029.38
2022-08-05T10:08:35.539Z,2739.38
2022-08-05T10:08:53.946Z,2925.00
2022-08-05T10:09:48.222Z,3116.25
2022-08-05T10:10:48.381Z,3043.12
2022-08-05T10:11:48.213Z,2120.62
2022-08-05T10:12:49.479Z,1923.75
2022-08-05T10:13:49.208Z,2694.38
2022-08-05T10:14:47.218Z,2992.50
2022-08-05T10:15:47.282Z,3048.75
2022-08-05T10:16:52.427Z,3105.00
2022-08-05T10:17:56.861Z,3088.12
2022-08-05T10:18:48.392Z,2970.00
2022-08-05T10:20:03.865Z,2002.50
2022-08-05T10:20:48.521Z,2250.00
2022-08-05T10:21:47.102Z,2863.12
2022-08-05T10:22:50.757Z,2919.38
2022-08-05T10:23:59.947Z,2868.75
2022-08-05T10:24:48.112Z,2958.75
2022-08-05T10:25:47.090Z,2655.00
2022-08-05T10:26:51.910Z,1963.12
2022-08-05T10:28:12.845Z,1580.62
2022-08-05T10:28:48.238Z,1350.00
2022-08-05T10:30:06.952Z,1828.12
2022-08-05T10:32:50.751Z,2216.25
2022-08-05T10:32:59.896Z,1833.75
2022-08-05T10:33:00.859Z,1783.12
2022-08-05T10:33:54.357Z,2356.88
2022-08-05T10:34:47.978Z,2896.88
2022-08-05T10:35:59.048Z,3116.25
2022-08-05T10:36:47.954Z,2986.88
2022-08-05T10:37:47.069Z,2008.12
2022-08-05T10:38:47.061Z,1603.12
2022-08-05T10:40:03.865Z,1974.38
2022-08-05T10:40:48.000Z,2581.88
2022-08-05T10:41:47.406Z,2874.38
2022-08-05T10:42:46.910Z,3178.12
2022-08-05T10:43:46.942Z,3358.12
2022-08-05T10:44:46.930Z,2925.00
2022-08-05T10:45:46.978Z,3009.38
2022-08-05T10:46:46.935Z,2812.50
2022-08-05T10:47:47.167Z,2795.62
2022-08-05T10:48:56.967Z,3228.75
2022-08-05T10:49:49.108Z,3071.25
2022-08-05T10:50:47.849Z,3155.62
2022-08-05T10:51:53.155Z,3279.38
2022-08-05T10:52:49.827Z,3313.12
2022-08-05T10:53:46.790Z,3228.75
2022-08-05T10:54:56.048Z,3161.25
2022-08-05T10:56:04.952Z,3161.25
2022-08-05T10:56:49.403Z,3183.75
2022-08-05T10:57:46.913Z,3138.75
2022-08-05T10:58:48.625Z,2261.25
2022-08-05T11:00:03.770Z,2880.00
2022-08-05T11:00:47.776Z,2919.38
2022-08-05T11:02:02.800Z,2992.50
2022-08-05T11:02:50.521Z,2705.62
2022-08-05T11:03:46.777Z,2936.25
2022-08-05T11:04:46.784Z,3076.88
2022-08-05T11:05:46.881Z,3121.88
2022-08-05T11:06:46.730Z,3037.50
2022-08-05T11:08:01.814Z,2829.38
2022-08-05T11:08:47.733Z,2975.62
2022-08-05T11:09:47.251Z,3217.50
2022-08-05T11:10:59.992Z,3346.88
2022-08-05T11:11:52.855Z,3352.50
2022-08-05T11:12:54.328Z,3510.00
2022-08-05T11:13:58.004Z,3780.00
2022-08-05T11:15:11.864Z,3735.00
2022-08-05T11:16:00.596Z,3723.75
2022-08-05T11:16:57.248Z,3825.00
2022-08-05T11:17:57.615Z,3993.75
2022-08-05T11:18:47.580Z,4095.00
2022-08-05T11:20:16.961Z,3616.88
2022-08-05T11:20:47.640Z,1895.62
2022-08-05T11:21:49.462Z,2407.50
2022-08-05T11:22:50.023Z,1923.75
2022-08-05T11:24:05.160Z,3358.12
2022-08-05T11:24:50.670Z,4095.00
2022-08-05T11:26:06.223Z,3526.88
2022-08-05T11:26:49.768Z,3836.25
2022-08-05T11:27:51.999Z,2655.00
2022-08-05T11:28:47.594Z,2008.12
2022-08-05T11:29:46.483Z,2210.62
2022-08-05T11:30:46.572Z,2857.50
2022-08-05T11:31:57.291Z,2958.75
2022-08-05T11:32:47.805Z,2801.25
2022-08-05T11:33:48.132Z,3071.25
2022-08-05T11:34:50.858Z,3313.12
2022-08-05T11:36:08.254Z,3093.75
2022-08-05T11:36:47.481Z,2739.38
2022-08-05T11:38:30.853Z,3296.25
2022-08-05T11:38:51.855Z,2818.12
2022-08-05T11:39:48.065Z,2812.50
2022-08-05T11:40:46.709Z,2064.38
2022-08-05T11:42:00.681Z,2790.00
2022-08-05T11:42:47.364Z,3240.00
2022-08-05T11:44:04.645Z,3026.25
2022-08-05T11:44:53.731Z,2716.88
2022-08-05T11:46:23.428Z,2694.38
2022-08-05T11:46:58.607Z,3268.12
2022-08-05T11:47:48.452Z,2891.25
2022-08-05T11:48:46.344Z,3183.75
2022-08-05T11:49:50.888Z,3223.12
2022-08-05T11:50:47.270Z,3363.75
2022-08-05T11:51:49.160Z,3313.12
2022-08-05T11:52:48.758Z,3318.75
2022-08-05T11:53:46.244Z,3178.12
2022-08-05T11:54:48.465Z,3161.25
2022-08-05T11:55:47.227Z,3183.75
2022-08-05T11:56:50.265Z,3110.62
2022-08-05T11:58:11.012Z,3003.75
2022-08-05T11:58:52.810Z,3009.38
2022-08-05T11:59:50.231Z,2553.75
2022-08-05T12:00:46.965Z,2728.12
2022-08-05T12:01:47.186Z,2655.00
2022-08-05T12:02:47.182Z,2677.50
2022-08-05T12:03:56.118Z,2790.00
2022-08-05T12:04:47.200Z,2868.75
2022-08-05T12:05:47.234Z,2863.12
2022-08-05T12:06:48.689Z,2953.12
2022-08-05T12:08:07.283Z,2694.38
2022-08-05T12:08:50.047Z,2812.50
2022-08-05T12:09:53.126Z,3240.00
2022-08-05T12:10:47.082Z,3290.62
2022-08-05T12:11:46.180Z,3375.00
2022-08-05T12:12:55.366Z,3228.75
2022-08-05T12:13:48.454Z,3093.75
2022-08-05T12:14:47.246Z,2700.00
2022-08-05T12:15:49.616Z,2508.75
2022-08-05T12:16:46.486Z,2075.62
2022-08-05T12:18:09.974Z,3183.75
2022-08-05T12:18:49.332Z,3549.38
2022-08-05T12:20:17.169Z,2536.88
2022-08-05T12:20:47.038Z,3380.62
2022-08-05T12:21:45.998Z,3588.75
2022-08-05T12:22:46.261Z,2362.50
2022-08-05T12:23:46.097Z,1777.50
2022-08-05T12:24:49.532Z,2109.38
2022-08-05T12:25:45.938Z,1569.38
2022-08-05T12:26:46.169Z,1440.00
2022-08-05T12:27:53.090Z,1411.88
2022-08-05T12:28:46.922Z,1305.00
2022-08-05T12:29:45.892Z,1350.00
2022-08-05T12:30:46.914Z,1575.00
2022-08-05T12:31:50.223Z,1878.75
2022-08-05T12:32:49.646Z,2880.00
2022-08-05T12:33:46.230Z,2261.25
2022-08-05T12:34:45.849Z,2525.62
2022-08-05T12:35:46.451Z,3099.38
2022-08-05T12:36:45.932Z,3256.88
2022-08-05T12:37:45.831Z,2160.00
2022-08-05T12:38:45.804Z,1355.62
2022-08-05T12:39:51.420Z,2250.00
2022-08-05T12:40:46.840Z,3166.88
2022-08-05T12:41:45.930Z,3240.00
2022-08-05T12:42:45.907Z,3251.25
2022-08-05T12:43:46.059Z,2981.25
2022-08-05T12:44:45.767Z,3071.25
2022-08-05T12:45:49.733Z,3048.75
2022-08-05T12:46:45.843Z,3363.75
2022-08-05T12:48:01.764Z,3273.75
2022-08-05T12:48:45.737Z,3560.62
2022-08-05T12:50:04.098Z,3566.25
2022-08-05T12:50:46.811Z,3600.00
2022-08-05T12:52:14.291Z,3369.38
2022-08-05T12:52:46.805Z,3510.00
2022-08-05T12:53:55.592Z,3211.88
2022-08-05T12:54:46.718Z,2986.88
2022-08-05T12:55:45.655Z,2013.75
2022-08-05T12:56:45.656Z,1321.88
2022-08-05T12:58:50.572Z,1282.50
2022-08-05T12:58:51.627Z,1248.75
2022-08-05T13:01:56.895Z,1198.12
2022-08-05T13:02:03.861Z,1136.25
2022-08-05T13:02:04.442Z,1158.75
2022-08-05T13:02:47.162Z,1130.62
2022-08-05T13:03:45.743Z,1147.50
2022-08-05T13:04:52.486Z,1164.38
2022-08-05T13:05:46.583Z,1175.62
2022-08-05T13:06:51.898Z,1203.75
2022-08-05T13:08:02.444Z,1260.00
2022-08-05T13:08:51.847Z,1265.62
2022-08-05T13:09:50.434Z,1203.75
2022-08-05T13:10:50.366Z,1192.50
2022-08-05T13:12:02.524Z,1175.62
2022-08-05T13:12:51.014Z,1170.00
2022-08-05T13:14:05.297Z,1170.00
2022-08-05T13:14:46.477Z,1215.00
2022-08-05T13:15:50.627Z,1192.50
2022-08-05T13:16:45.496Z,1113.75
2022-08-05T13:17:45.450Z,1040.62
2022-08-05T13:18:45.514Z,967.50
2022-08-05T13:19:52.643Z,916.88
2022-08-05T13:20:46.446Z,877.50
2022-08-05T13:21:48.087Z,883.12
2022-08-05T13:22:46.391Z,905.62
2022-08-05T13:23:50.695Z,990.00
2022-08-05T13:24:58.138Z,1046.25
2022-08-05T13:25:52.623Z,1057.50
2022-08-05T13:26:50.803Z,1051.88
2022-08-05T13:27:45.677Z,1006.88
2022-08-05T13:28:46.589Z,1018.12
2022-08-05T13:30:33.020Z,1018.12
2022-08-05T13:30:46.353Z,1051.88
2022-08-05T13:32:03.938Z,1102.50
2022-08-05T13:32:46.656Z,1175.62
2022-08-05T13:34:21.464Z,1181.25
2022-08-05T13:34:46.289Z,1186.88
2022-08-05T13:35:51.329Z,1175.62
2022-08-05T13:36:46.462Z,1113.75
2022-08-05T13:37:46.579Z,1063.12
2022-08-05T13:38:46.305Z,1023.75
2022-08-05T13:40:13.878Z,1012.50
2022-08-05T13:40:49.929Z,1012.50
2022-08-05T13:41:46.756Z,1012.50
2022-08-05T13:42:45.223Z,1012.50
2022-08-05T13:43:54.828Z,1035.00
2022-08-05T13:44:46.447Z,1029.38
2022-08-05T13:45:45.663Z,1063.12
2022-08-05T13:47:04.986Z,1119.38
2022-08-05T13:48:09.888Z,1164.38
2022-08-05T13:48:57.962Z,1141.88
2022-08-05T13:49:46.570Z,1096.88
2022-08-05T13:50:45.151Z,1080.00
2022-08-05T13:51:46.538Z,1080.00
2022-08-05T13:52:45.116Z,1074.38
2022-08-05T13:53:47.852Z,1074.38
2022-08-05T13:54:53.328Z,1057.50
2022-08-05T13:55:50.167Z,1023.75
2022-08-05T13:56:51.493Z,1006.88
2022-08-05T13:57:50.935Z,1018.12
2022-08-05T13:58:53.465Z,1012.50
2022-08-05T13:59:59.372Z,1001.25
2022-08-05T14:00:46.038Z,956.25
2022-08-05T14:01:56.663Z,922.50
2022-08-05T14:02:46.083Z,900.00
2022-08-05T14:03:45.025Z,860.62
2022-08-05T14:04:51.079Z,843.75
2022-08-05T14:06:04.735Z,855.00
2022-08-05T14:06:47.581Z,877.50
2022-08-05T14:07:59.894Z,860.62
2022-08-05T14:08:45.935Z,843.75
2022-08-05T14:09:46.340Z,826.88
2022-08-05T14:10:44.931Z,843.75
2022-08-05T14:12:04.365Z,821.25
2022-08-05T14:12:48.825Z,798.75
2022-08-05T14:13:48.259Z,798.75
2022-08-05T14:14:44.959Z,810.00
2022-08-05T14:16:05.295Z,843.75
2022-08-05T14:16:45.906Z,826.88
2022-08-05T14:17:44.972Z,810.00
2022-08-05T14:18:44.861Z,810.00
2022-08-05T14:19:54.378Z,781.88
2022-08-05T14:20:46.829Z,725.62
2022-08-05T14:22:09.368Z,663.75
2022-08-05T14:22:50.222Z,585.00
2022-08-05T14:23:44.791Z,506.25
2022-08-05T14:24:44.845Z,455.62
2022-08-05T14:25:45.399Z,427.50
2022-08-05T14:27:01.951Z,416.25
2022-08-05T14:27:47.477Z,410.62
2022-08-05T14:28:52.428Z,405.00
2022-08-05T14:29:45.890Z,405.00
2022-08-05T14:30:46.415Z,399.38
2022-08-05T14:32:02.600Z,393.75
2022-08-05T14:32:45.859Z,393.75
2022-08-05T14:34:00.202Z,388.12
2022-08-05T14:34:45.725Z,388.12
2022-08-05T14:35:50.242Z,382.50
2022-08-05T14:36:48.665Z,382.50
2022-08-05T14:37:45.607Z,382.50
2022-08-05T14:38:44.711Z,382.50
2022-08-05T14:39:49.907Z,382.50
2022-08-05T14:40:45.650Z,382.50
2022-08-05T14:42:08.749Z,382.50
2022-08-05T14:42:45.658Z,382.50
2022-08-05T14:44:02.724Z,376.88
2022-08-05T14:44:45.579Z,376.88
2022-08-05T14:45:44.592Z,376.88
2022-08-05T14:46:44.764Z,376.88
2022-08-05T14:48:03.501Z,376.88
2022-08-05T14:48:49.847Z,371.25
2022-08-05T14:49:59.493Z,371.25
2022-08-05T14:50:45.546Z,365.62
2022-08-05T14:51:44.518Z,365.62
2022-08-05T14:52:53.052Z,365.62
2022-08-05T14:53:45.545Z,365.62
2022-08-05T14:54:52.929Z,360.00
2022-08-05T14:55:52.088Z,360.00
2022-08-05T14:56:46.906Z,354.38
2022-08-05T14:57:54.414Z,354.38
2022-08-05T14:58:47.799Z,354.38
2022-08-05T14:59:45.446Z,348.75
2022-08-05T15:00:58.327Z,348.75
2022-08-05T15:01:48.719Z,348.75
2022-08-05T15:02:45.508Z,343.12
2022-08-05T15:03:45.300Z,343.12
2022-08-05T15:04:45.029Z,343.12
2022-08-05T15:06:12.970Z,343.12
